createdAt,value
2023-08-08T05:00:58.602Z,1005.06
2023-08-08T05:01:58.714Z,1005.02
2023-08-08T05:02:58.544Z,1004.97
2023-08-08T05:03:58.481Z,1004.91
2023-08-08T05:04:58.427Z,1004.97
2023-08-08T05:05:58.407Z,1004.91
2023-08-08T05:06:58.390Z,1004.97
2023-08-08T05:07:58.382Z,1004.94
2023-08-08T05:08:58.384Z,1004.97
2023-08-08T05:09:58.374Z,1004.99
2023-08-08T05:10:59.357Z,1005.03
2023-08-08T05:12:03.650Z,1004.97
2023-08-08T05:12:58.340Z,1005.00
2023-08-08T05:13:58.324Z,1004.97
2023-08-08T05:14:58.322Z,1004.90
2023-08-08T05:15:58.321Z,1004.94
2023-08-08T05:16:58.295Z,1004.99
2023-08-08T05:17:58.305Z,1004.92
2023-08-08T05:18:58.287Z,1004.90
2023-08-08T05:19:58.269Z,1004.92
2023-08-08T05:20:58.334Z,1004.90
2023-08-08T05:21:58.447Z,1004.85
2023-08-08T05:23:03.242Z,1004.83
2023-08-08T05:23:58.212Z,1004.86
2023-08-08T05:24:58.209Z,1004.88
2023-08-08T05:25:58.189Z,1004.84
2023-08-08T05:26:58.193Z,1004.88
2023-08-08T05:27:58.152Z,1004.84
2023-08-08T05:28:58.164Z,1004.89
2023-08-08T05:29:58.139Z,1004.84
2023-08-08T05:30:58.167Z,1004.86
2023-08-08T05:31:58.441Z,1004.83
2023-08-08T05:32:58.228Z,1004.83
2023-08-08T05:34:03.134Z,1004.82
2023-08-08T05:34:58.103Z,1004.89
2023-08-08T05:35:58.060Z,1004.86
2023-08-08T05:37:14.513Z,1004.83
2023-08-08T05:37:59.056Z,1004.80
2023-08-08T05:38:58.029Z,1004.80
2023-08-08T05:39:58.029Z,1004.76
2023-08-08T05:40:58.016Z,1004.78
2023-08-08T05:41:58.000Z,1004.76
2023-08-08T05:42:58.055Z,1004.80
2023-08-08T05:43:57.982Z,1004.79
2023-08-08T05:45:03.024Z,1004.84
2023-08-08T05:45:58.051Z,1004.79
2023-08-08T05:46:57.941Z,1004.82
2023-08-08T05:47:57.980Z,1004.82
2023-08-08T05:48:58.043Z,1004.90
2023-08-08T05:49:57.909Z,1004.86
2023-08-08T05:50:57.898Z,1004.84
2023-08-08T05:51:58.088Z,1004.86
2023-08-08T05:52:57.890Z,1004.82
2023-08-08T05:53:59.621Z,1004.81
2023-08-08T05:54:57.867Z,1004.85
2023-08-08T05:56:02.878Z,1004.92
2023-08-08T05:56:57.849Z,1004.93
2023-08-08T05:57:57.825Z,1004.94
2023-08-08T05:58:57.814Z,1004.94
2023-08-08T05:59:57.806Z,1004.94
2023-08-08T06:00:57.787Z,1004.94
2023-08-08T06:01:57.837Z,1004.94
2023-08-08T06:02:57.804Z,1004.89
2023-08-08T06:03:57.805Z,1004.90
2023-08-08T06:04:57.772Z,1004.93
2023-08-08T06:05:57.761Z,1004.99
2023-08-08T06:07:02.810Z,1004.96
2023-08-08T06:07:57.713Z,1004.89
2023-08-08T06:08:57.699Z,1004.92
2023-08-08T06:09:57.693Z,1004.97
2023-08-08T06:10:57.693Z,1004.88
2023-08-08T06:11:57.861Z,1004.94
2023-08-08T06:12:57.645Z,1004.94
2023-08-08T06:13:57.638Z,1004.97
2023-08-08T06:14:57.637Z,1004.97
2023-08-08T06:15:57.686Z,1004.94
2023-08-08T06:16:57.634Z,1004.93
2023-08-08T06:18:02.658Z,1004.96
2023-08-08T06:18:57.588Z,1004.91
2023-08-08T06:19:57.607Z,1004.91
2023-08-08T06:20:57.603Z,1004.91
2023-08-08T06:21:57.552Z,1004.87
2023-08-08T06:22:57.552Z,1004.95
2023-08-08T06:23:57.536Z,1004.94
2023-08-08T06:24:57.553Z,1004.93
2023-08-08T06:25:57.534Z,1004.97
2023-08-08T06:26:57.508Z,1004.96
2023-08-08T06:27:57.493Z,1004.90
2023-08-08T06:29:02.488Z,1004.89
2023-08-08T06:29:57.483Z,1004.86
2023-08-08T06:30:57.459Z,1004.93
2023-08-08T06:31:57.617Z,1004.91
2023-08-08T06:32:57.466Z,1004.88
2023-08-08T06:33:57.453Z,1004.93
2023-08-08T06:34:57.427Z,1004.99
2023-08-08T06:35:57.396Z,1004.95
2023-08-08T06:36:57.507Z,1005.02
2023-08-08T06:37:57.375Z,1005.05
2023-08-08T06:38:57.381Z,1004.99
2023-08-08T06:40:02.393Z,1004.98
2023-08-08T06:40:57.343Z,1005.01
2023-08-08T06:41:57.772Z,1005.00
2023-08-08T06:42:57.325Z,1004.96
2023-08-08T06:43:57.329Z,1005.00
2023-08-08T06:44:57.301Z,1005.00
2023-08-08T06:45:57.342Z,1004.99
2023-08-08T06:46:57.271Z,1004.90
2023-08-08T06:47:57.311Z,1004.95
2023-08-08T06:48:57.284Z,1004.99
2023-08-08T06:49:57.238Z,1004.93
2023-08-08T06:51:02.259Z,1005.00
2023-08-08T06:51:57.518Z,1004.89
2023-08-08T06:52:57.236Z,1004.94
2023-08-08T06:53:57.222Z,1004.92
2023-08-08T06:54:57.186Z,1004.92
2023-08-08T06:55:57.183Z,1004.91
2023-08-08T06:56:58.762Z,1004.88
2023-08-08T06:57:57.181Z,1004.90
2023-08-08T06:58:57.148Z,1004.91
2023-08-08T06:59:57.141Z,1004.86
2023-08-08T07:00:57.186Z,1004.90
2023-08-08T07:02:02.167Z,1004.85
2023-08-08T07:02:57.917Z,1004.82
2023-08-08T07:03:57.084Z,1004.87
2023-08-08T07:04:57.089Z,1004.87
2023-08-08T07:05:57.062Z,1004.81
2023-08-08T07:06:57.044Z,1004.79
2023-08-08T07:07:57.058Z,1004.84
2023-08-08T07:08:57.144Z,1004.80
2023-08-08T07:09:57.028Z,1004.85
2023-08-08T07:10:57.177Z,1004.81
2023-08-08T07:11:57.050Z,1004.82
2023-08-08T07:13:02.080Z,1004.82
2023-08-08T07:13:56.971Z,1004.82
2023-08-08T07:14:56.981Z,1004.82
2023-08-08T07:15:57.025Z,1004.87
2023-08-08T07:16:56.959Z,1004.88
2023-08-08T07:17:56.978Z,1004.76
2023-08-08T07:18:57.009Z,1004.87
2023-08-08T07:19:56.909Z,1004.85
2023-08-08T07:20:56.891Z,1004.82
2023-08-08T07:21:56.901Z,1004.85
2023-08-08T07:22:56.885Z,1004.83
2023-08-08T07:24:01.899Z,1004.86
2023-08-08T07:24:56.854Z,1004.81
2023-08-08T07:25:56.872Z,1004.85
2023-08-08T07:26:56.854Z,1004.85
2023-08-08T07:27:56.836Z,1004.88
2023-08-08T07:28:56.796Z,1004.88
2023-08-08T07:29:56.792Z,1004.85
2023-08-08T07:30:56.808Z,1004.79
2023-08-08T07:31:56.787Z,1004.78
2023-08-08T07:32:56.862Z,1004.78
2023-08-08T07:33:56.739Z,1004.80
2023-08-08T07:35:01.761Z,1004.80
2023-08-08T07:35:56.747Z,1004.86
2023-08-08T07:36:56.718Z,1004.87
2023-08-08T07:37:56.698Z,1004.83
2023-08-08T07:38:56.694Z,1004.84
2023-08-08T07:39:56.720Z,1004.79
2023-08-08T07:40:56.719Z,1004.81
2023-08-08T07:41:56.750Z,1004.80
2023-08-08T07:42:56.684Z,1004.85
2023-08-08T07:43:56.645Z,1004.82
2023-08-08T07:44:56.640Z,1004.82
2023-08-08T07:46:01.642Z,1004.81
2023-08-08T07:46:56.650Z,1004.82
2023-08-08T07:47:56.655Z,1004.76
2023-08-08T07:48:56.573Z,1004.79
2023-08-08T07:49:56.577Z,1004.79
2023-08-08T07:50:56.552Z,1004.83
2023-08-08T07:51:56.557Z,1004.79
2023-08-08T07:52:56.544Z,1004.84
2023-08-08T07:53:56.560Z,1004.80
2023-08-08T07:54:56.528Z,1004.80
2023-08-08T07:55:56.528Z,1004.79
2023-08-08T07:57:01.532Z,1004.72
2023-08-08T07:57:56.495Z,1004.75
2023-08-08T07:58:56.490Z,1004.74
2023-08-08T07:59:56.458Z,1004.68
2023-08-08T08:00:56.458Z,1004.69
2023-08-08T08:01:56.464Z,1004.63
2023-08-08T08:02:56.444Z,1004.69
2023-08-08T08:03:56.465Z,1004.73
2023-08-08T08:04:56.404Z,1004.73
2023-08-08T08:05:56.448Z,1004.71
2023-08-08T08:06:56.382Z,1004.68
2023-08-08T08:08:01.827Z,1004.69
2023-08-08T08:08:56.385Z,1004.70
2023-08-08T08:09:56.366Z,1004.68
2023-08-08T08:10:56.364Z,1004.69
2023-08-08T08:11:56.372Z,1004.69
2023-08-08T08:12:56.318Z,1004.70
2023-08-08T08:13:56.307Z,1004.64
2023-08-08T08:14:56.307Z,1004.68
2023-08-08T08:15:56.281Z,1004.62
2023-08-08T08:16:56.347Z,1004.76
2023-08-08T08:17:56.271Z,1004.73
2023-08-08T08:19:01.265Z,1004.67
2023-08-08T08:19:56.235Z,1004.73
2023-08-08T08:20:56.237Z,1004.74
2023-08-08T08:21:56.231Z,1004.68
2023-08-08T08:22:56.234Z,1004.64
2023-08-08T08:23:56.206Z,1004.68
2023-08-08T08:24:56.182Z,1004.69
2023-08-08T08:25:56.199Z,1004.64
2023-08-08T08:26:56.162Z,1004.78
2023-08-08T08:27:56.348Z,1004.65
2023-08-08T08:28:56.131Z,1004.69
2023-08-08T08:30:01.156Z,1004.74
2023-08-08T08:30:56.165Z,1004.68
2023-08-08T08:31:56.118Z,1004.67
2023-08-08T08:32:56.159Z,1004.75
2023-08-08T08:33:56.097Z,1004.71
2023-08-08T08:34:56.067Z,1004.73
2023-08-08T08:35:56.054Z,1004.75
2023-08-08T08:36:56.059Z,1004.69
2023-08-08T08:37:56.045Z,1004.68
2023-08-08T08:38:56.017Z,1004.66
2023-08-08T08:39:56.054Z,1004.66
2023-08-08T08:41:01.018Z,1004.67
2023-08-08T08:41:56.012Z,1004.76
2023-08-08T08:42:55.980Z,1004.73
2023-08-08T08:43:56.040Z,1004.70
2023-08-08T08:44:55.958Z,1004.71
2023-08-08T08:45:55.950Z,1004.64
2023-08-08T08:46:55.937Z,1004.67
2023-08-08T08:47:55.967Z,1004.58
2023-08-08T08:48:55.933Z,1004.67
2023-08-08T08:49:55.928Z,1004.62
2023-08-08T08:50:55.890Z,1004.61
2023-08-08T08:52:01.198Z,1004.56
2023-08-08T08:52:55.872Z,1004.63
2023-08-08T08:53:55.882Z,1004.57
2023-08-08T08:54:55.850Z,1004.55
2023-08-08T08:55:55.878Z,1004.51
2023-08-08T08:56:55.837Z,1004.58
2023-08-08T08:57:55.845Z,1004.55
2023-08-08T08:58:55.809Z,1004.51
2023-08-08T08:59:55.894Z,1004.56
2023-08-08T09:00:55.799Z,1004.49
2023-08-08T09:01:55.788Z,1004.51
2023-08-08T09:03:00.903Z,1004.56
2023-08-08T09:03:55.763Z,1004.49
2023-08-08T09:04:55.748Z,1004.54
2023-08-08T09:05:55.745Z,1004.51
2023-08-08T09:06:55.726Z,1004.44
2023-08-08T09:07:55.694Z,1004.44
2023-08-08T09:09:03.383Z,1004.50
2023-08-08T09:09:56.702Z,1004.46
2023-08-08T09:10:55.673Z,1004.52
2023-08-08T09:11:55.719Z,1004.50
2023-08-08T09:12:55.663Z,1004.46
2023-08-08T09:14:00.683Z,1004.42
2023-08-08T09:14:55.643Z,1004.47
2023-08-08T09:15:55.772Z,1004.50
2023-08-08T09:16:55.687Z,1004.48
2023-08-08T09:17:55.637Z,1004.50
2023-08-08T09:18:55.597Z,1004.52
2023-08-08T09:19:55.576Z,1004.47
2023-08-08T09:20:55.547Z,1004.46
2023-08-08T09:21:55.596Z,1004.51
2023-08-08T09:22:55.527Z,1004.45
2023-08-08T09:23:55.563Z,1004.39
2023-08-08T09:25:00.574Z,1004.51
2023-08-08T09:25:55.507Z,1004.43
2023-08-08T09:26:55.483Z,1004.44
2023-08-08T09:27:55.492Z,1004.43
2023-08-08T09:28:55.488Z,1004.43
2023-08-08T09:29:55.519Z,1004.48
2023-08-08T09:30:55.447Z,1004.38
2023-08-08T09:31:55.474Z,1004.49
2023-08-08T09:32:55.478Z,1004.46
2023-08-08T09:33:55.430Z,1004.42
2023-08-08T09:34:55.406Z,1004.43
2023-08-08T09:36:00.433Z,1004.40
2023-08-08T09:36:55.382Z,1004.42
2023-08-08T09:37:55.428Z,1004.29
2023-08-08T09:38:55.384Z,1004.32
2023-08-08T09:39:55.376Z,1004.25
2023-08-08T09:40:55.340Z,1004.27
2023-08-08T09:41:55.384Z,1004.32
2023-08-08T09:42:55.322Z,1004.30
2023-08-08T09:43:55.295Z,1004.32
2023-08-08T09:44:55.281Z,1004.23
2023-08-08T09:45:55.351Z,1004.32
2023-08-08T09:47:00.328Z,1004.32
2023-08-08T09:47:55.364Z,1004.37
2023-08-08T09:48:55.249Z,1004.28
2023-08-08T09:49:55.250Z,1004.27
2023-08-08T09:50:55.237Z,1004.28
2023-08-08T09:51:55.267Z,1004.36
2023-08-08T09:52:55.230Z,1004.29
2023-08-08T09:53:55.186Z,1004.35
2023-08-08T09:54:55.181Z,1004.30
2023-08-08T09:55:55.212Z,1004.32
2023-08-08T09:56:55.201Z,1004.30
2023-08-08T09:58:00.171Z,1004.31
2023-08-08T09:58:55.165Z,1004.37
2023-08-08T09:59:55.193Z,1004.25
2023-08-08T10:00:55.112Z,1004.39
2023-08-08T10:01:55.177Z,1004.30
2023-08-08T10:02:55.175Z,1004.32
2023-08-08T10:03:55.231Z,1004.34
2023-08-08T10:04:56.082Z,1004.30
2023-08-08T10:05:55.084Z,1004.34
2023-08-08T10:06:55.057Z,1004.29
2023-08-08T10:07:55.030Z,1004.25
2023-08-08T10:09:00.068Z,1004.24
2023-08-08T10:09:55.035Z,1004.32
2023-08-08T10:10:55.017Z,1004.20
2023-08-08T10:11:55.007Z,1004.18
2023-08-08T10:12:54.981Z,1004.13
2023-08-08T10:13:54.963Z,1004.22
2023-08-08T10:14:54.981Z,1004.10
2023-08-08T10:15:54.989Z,1004.19
2023-08-08T10:16:54.950Z,1004.22
2023-08-08T10:17:54.950Z,1004.16
2023-08-08T10:18:54.927Z,1004.21
2023-08-08T10:19:59.921Z,1004.17
2023-08-08T10:20:54.957Z,1004.18
2023-08-08T10:21:54.939Z,1004.25
2023-08-08T10:22:55.481Z,1004.30
2023-08-08T10:23:54.937Z,1004.23
2023-08-08T10:24:55.027Z,1004.16
2023-08-08T10:25:54.852Z,1004.14
2023-08-08T10:26:54.816Z,1004.20
2023-08-08T10:27:54.801Z,1004.16
2023-08-08T10:28:56.219Z,1004.15
2023-08-08T10:29:54.791Z,1004.21
2023-08-08T10:30:59.817Z,1004.19
2023-08-08T10:31:54.868Z,1004.12
2023-08-08T10:32:54.802Z,1004.10
2023-08-08T10:33:54.743Z,1004.12
2023-08-08T10:34:55.192Z,1004.22
2023-08-08T10:35:54.720Z,1004.21
2023-08-08T10:36:54.727Z,1004.15
2023-08-08T10:37:54.792Z,1004.17
2023-08-08T10:38:54.705Z,1004.08
2023-08-08T10:39:54.794Z,1004.12
2023-08-08T10:40:55.576Z,1004.15
2023-08-08T10:41:59.853Z,1004.16
2023-08-08T10:42:54.647Z,1004.09
2023-08-08T10:43:54.644Z,1004.09
2023-08-08T10:44:54.648Z,1004.24
2023-08-08T10:46:07.889Z,1004.08
2023-08-08T10:46:55.105Z,1004.21
2023-08-08T10:47:54.588Z,1004.15
2023-08-08T10:48:54.597Z,1004.09
2023-08-08T10:49:54.563Z,1004.11
2023-08-08T10:50:54.608Z,1004.03
2023-08-08T10:51:54.551Z,1004.10
2023-08-08T10:52:59.573Z,1004.24
2023-08-08T10:53:54.623Z,1004.05
2023-08-08T10:54:54.508Z,1003.95
2023-08-08T10:55:54.521Z,1003.98
2023-08-08T10:56:54.486Z,1004.02
2023-08-08T10:57:54.486Z,1004.01
2023-08-08T10:58:54.503Z,1003.89
2023-08-08T10:59:54.457Z,1004.00
2023-08-08T11:00:54.492Z,1003.95
2023-08-08T11:01:54.450Z,1004.10
2023-08-08T11:02:54.546Z,1004.01
2023-08-08T11:03:59.448Z,1004.04
2023-08-08T11:04:54.431Z,1004.03
2023-08-08T11:05:54.388Z,1003.99
2023-08-08T11:06:54.518Z,1003.97
2023-08-08T11:07:54.398Z,1003.92
2023-08-08T11:08:54.368Z,1003.93
2023-08-08T11:09:54.334Z,1003.97
2023-08-08T11:10:54.331Z,1004.00
2023-08-08T11:11:54.328Z,1003.90
2023-08-08T11:12:54.345Z,1003.98
2023-08-08T11:13:54.301Z,1003.97
2023-08-08T11:14:59.322Z,1003.92
2023-08-08T11:15:54.329Z,1003.89
2023-08-08T11:16:54.270Z,1003.90
2023-08-08T11:17:54.319Z,1003.99
2023-08-08T11:18:54.244Z,1004.06
2023-08-08T11:19:54.238Z,1004.07
2023-08-08T11:21:05.312Z,1004.01
2023-08-08T11:21:55.255Z,1004.14
2023-08-08T11:22:54.317Z,1004.09
2023-08-08T11:23:54.206Z,1004.10
2023-08-08T11:24:54.188Z,1004.07
2023-08-08T11:26:54.178Z,1004.00
2023-08-08T11:27:54.141Z,1003.94
2023-08-08T11:28:54.150Z,1003.87
2023-08-08T11:29:54.141Z,1003.88
2023-08-08T11:30:54.146Z,1003.92
2023-08-08T11:31:54.158Z,1004.00
2023-08-08T11:33:54.081Z,1003.94
2023-08-08T11:34:54.064Z,1003.91
2023-08-08T11:35:54.064Z,1003.94
2023-08-08T11:36:59.071Z,1004.00
2023-08-08T11:37:54.057Z,1003.94
2023-08-08T11:38:54.050Z,1003.94
2023-08-08T11:39:54.025Z,1003.98
2023-08-08T11:40:54.028Z,1003.93
2023-08-08T11:41:53.996Z,1003.97
2023-08-08T11:42:54.003Z,1004.03
2023-08-08T11:43:53.990Z,1003.94
2023-08-08T11:44:53.972Z,1003.92
2023-08-08T11:45:53.973Z,1003.96
2023-08-08T11:46:54.041Z,1003.88
2023-08-08T11:47:59.005Z,1003.88
2023-08-08T11:48:53.925Z,1003.97
2023-08-08T11:49:53.916Z,1003.95
2023-08-08T11:50:53.903Z,1003.97
2023-08-08T11:51:53.884Z,1003.93
2023-08-08T11:52:53.871Z,1003.93
2023-08-08T11:53:53.924Z,1003.98
2023-08-08T11:54:53.930Z,1004.02
2023-08-08T11:55:53.851Z,1003.91
2023-08-08T11:56:53.840Z,1003.88
2023-08-08T11:57:53.813Z,1003.79
2023-08-08T11:58:58.831Z,1003.75
2023-08-08T11:59:53.793Z,1003.84
2023-08-08T12:00:53.870Z,1003.99
2023-08-08T12:01:53.774Z,1003.83
2023-08-08T12:02:53.986Z,1003.91
2023-08-08T12:03:53.827Z,1003.89
2023-08-08T12:04:53.762Z,1003.90
2023-08-08T12:05:53.726Z,1003.94
2023-08-08T12:06:53.725Z,1003.91
2023-08-08T12:07:53.731Z,1003.71
2023-08-08T12:08:53.703Z,1003.84
2023-08-08T12:09:58.813Z,1003.72
2023-08-08T12:10:54.388Z,1003.82
2023-08-08T12:11:53.686Z,1003.72
2023-08-08T12:12:53.673Z,1003.97
2023-08-08T12:13:53.691Z,1003.84
2023-08-08T12:15:55.319Z,1003.95
2023-08-08T12:16:53.679Z,1003.80
2023-08-08T12:17:53.640Z,1003.77
2023-08-08T12:18:53.602Z,1003.81
2023-08-08T12:19:53.580Z,1003.88
2023-08-08T12:20:58.627Z,1003.77
2023-08-08T12:21:53.580Z,1003.76
2023-08-08T12:22:53.632Z,1003.77
2023-08-08T12:23:53.539Z,1003.79
2023-08-08T12:24:53.514Z,1003.71
2023-08-08T12:25:53.636Z,1003.68
2023-08-08T12:26:53.518Z,1003.63
2023-08-08T12:27:53.521Z,1003.70
2023-08-08T12:28:53.486Z,1003.66
2023-08-08T12:29:53.476Z,1003.68
2023-08-08T12:30:53.480Z,1003.69
2023-08-08T12:31:53.455Z,1003.72
2023-08-08T12:32:53.472Z,1003.86
2023-08-08T12:33:58.445Z,1003.96
2023-08-08T12:34:53.458Z,1003.87
2023-08-08T12:35:53.430Z,1003.70
2023-08-08T12:36:53.409Z,1003.75
2023-08-08T12:37:53.389Z,1003.64
2023-08-08T12:38:53.370Z,1003.78
2023-08-08T12:39:53.361Z,1003.71
2023-08-08T12:40:53.370Z,1003.62
2023-08-08T12:41:53.400Z,1003.61
2023-08-08T12:42:53.325Z,1003.59
2023-08-08T12:43:53.321Z,1003.58
2023-08-08T12:44:53.308Z,1003.71
2023-08-08T12:45:53.323Z,1003.65
2023-08-08T12:46:58.658Z,1003.70
2023-08-08T12:47:53.338Z,1003.72
2023-08-08T12:48:53.290Z,1003.57
2023-08-08T12:49:53.253Z,1003.62
2023-08-08T12:50:53.264Z,1003.62
2023-08-08T12:51:53.239Z,1003.57
2023-08-08T12:52:53.218Z,1003.53
2023-08-08T12:53:53.198Z,1003.58
2023-08-08T12:54:53.200Z,1003.51
2023-08-08T12:55:53.234Z,1003.66
2023-08-08T12:56:53.174Z,1003.58
2023-08-08T12:57:53.296Z,1003.58
2023-08-08T12:58:53.157Z,1003.51
2023-08-08T12:59:58.205Z,1003.53
2023-08-08T13:00:53.174Z,1003.59
2023-08-08T13:01:53.157Z,1003.55
2023-08-08T13:02:53.194Z,1003.55
2023-08-08T13:04:16.179Z,1003.56
2023-08-08T13:04:54.126Z,1003.55
2023-08-08T13:05:53.088Z,1003.51
2023-08-08T13:06:53.132Z,1003.49
2023-08-08T13:07:53.074Z,1003.51
2023-08-08T13:08:53.050Z,1003.62
2023-08-08T13:09:53.052Z,1003.55
2023-08-08T13:10:53.027Z,1003.50
2023-08-08T13:11:53.044Z,1003.54
2023-08-08T13:12:58.082Z,1003.49
2023-08-08T13:13:53.011Z,1003.56
2023-08-08T13:14:52.993Z,1003.55
2023-08-08T13:15:52.963Z,1003.58
2023-08-08T13:16:52.955Z,1003.56
2023-08-08T13:17:52.962Z,1003.57
2023-08-08T13:18:52.945Z,1003.53
2023-08-08T13:19:52.964Z,1003.47
2023-08-08T13:20:52.915Z,1003.49
2023-08-08T13:21:52.895Z,1003.48
2023-08-08T13:22:52.896Z,1003.52
2023-08-08T13:23:57.924Z,1003.55
2023-08-08T13:24:52.865Z,1003.48
2023-08-08T13:25:52.897Z,1003.48
2023-08-08T13:26:52.851Z,1003.49
2023-08-08T13:27:52.831Z,1003.45
2023-08-08T13:28:52.945Z,1003.45
2023-08-08T13:29:52.812Z,1003.44
2023-08-08T13:30:52.843Z,1003.49
2023-08-08T13:31:52.801Z,1003.46
2023-08-08T13:32:52.859Z,1003.50
2023-08-08T13:33:52.773Z,1003.51
2023-08-08T13:34:57.777Z,1003.53
2023-08-08T13:35:52.749Z,1003.52
2023-08-08T13:36:52.737Z,1003.51
2023-08-08T13:37:52.741Z,1003.46
2023-08-08T13:38:55.086Z,1003.54
2023-08-08T13:39:52.694Z,1003.51
2023-08-08T13:40:52.689Z,1003.47
2023-08-08T13:41:52.700Z,1003.44
2023-08-08T13:42:52.701Z,1003.51
2023-08-08T13:43:52.708Z,1003.36
2023-08-08T13:44:52.960Z,1003.45
2023-08-08T13:45:57.798Z,1003.44
2023-08-08T13:46:52.664Z,1003.42
2023-08-08T13:47:52.663Z,1003.42
2023-08-08T13:48:52.624Z,1003.43
2023-08-08T13:49:52.594Z,1003.49
2023-08-08T13:50:52.588Z,1003.45
2023-08-08T13:51:52.936Z,1003.50
2023-08-08T13:52:52.569Z,1003.40
2023-08-08T13:53:52.555Z,1003.51
2023-08-08T13:54:52.590Z,1003.41
2023-08-08T13:55:52.531Z,1003.42
2023-08-08T13:56:57.556Z,1003.45
2023-08-08T13:57:52.528Z,1003.31
2023-08-08T13:58:52.490Z,1003.35
2023-08-08T13:59:52.502Z,1003.37
2023-08-08T14:00:52.497Z,1003.40
2023-08-08T14:01:52.512Z,1003.35
2023-08-08T14:02:52.550Z,1003.41
2023-08-08T14:03:52.536Z,1003.44
2023-08-08T14:04:52.430Z,1003.42
2023-08-08T14:05:52.451Z,1003.34
2023-08-08T14:06:52.426Z,1003.34
2023-08-08T14:07:57.422Z,1003.31
2023-08-08T14:08:52.398Z,1003.40
2023-08-08T14:09:52.394Z,1003.41
2023-08-08T14:10:52.390Z,1003.28
2023-08-08T14:11:52.349Z,1003.29
2023-08-08T14:12:52.351Z,1003.31
2023-08-08T14:13:52.329Z,1003.31
2023-08-08T14:14:52.327Z,1003.32
2023-08-08T14:15:52.337Z,1003.29
2023-08-08T14:16:53.830Z,1003.24
2023-08-08T14:17:52.330Z,1003.35
2023-08-08T14:18:57.302Z,1003.32
2023-08-08T14:19:52.273Z,1003.27
2023-08-08T14:20:52.288Z,1003.18
2023-08-08T14:21:52.262Z,1003.25
2023-08-08T14:22:52.225Z,1003.20
2023-08-08T14:23:52.237Z,1003.24
2023-08-08T14:24:52.241Z,1003.29
2023-08-08T14:25:52.211Z,1003.32
2023-08-08T14:26:52.198Z,1003.29
2023-08-08T14:27:52.178Z,1003.30
2023-08-08T14:28:52.168Z,1003.33
2023-08-08T14:29:57.192Z,1003.28
2023-08-08T14:30:52.144Z,1003.26
2023-08-08T14:32:00.521Z,1003.24
2023-08-08T14:32:53.149Z,1003.23
2023-08-08T14:33:52.112Z,1003.22
2023-08-08T14:34:52.427Z,1003.19
2023-08-08T14:35:52.093Z,1003.29
2023-08-08T14:36:52.084Z,1003.21
2023-08-08T14:37:52.086Z,1003.30
2023-08-08T14:38:52.147Z,1003.25
2023-08-08T14:39:52.118Z,1003.23
2023-08-08T14:40:57.100Z,1003.21
2023-08-08T14:41:52.017Z,1003.23
2023-08-08T14:42:52.678Z,1003.28
2023-08-08T14:43:52.029Z,1003.19
2023-08-08T14:44:51.987Z,1003.17
2023-08-08T14:45:51.985Z,1003.23
2023-08-08T14:46:51.969Z,1003.32
2023-08-08T14:47:52.024Z,1003.19
2023-08-08T14:48:51.985Z,1003.23
2023-08-08T14:49:51.929Z,1003.26
2023-08-08T14:50:51.923Z,1003.26
2023-08-08T14:51:56.936Z,1003.22
2023-08-08T14:52:51.923Z,1003.20
2023-08-08T14:53:51.908Z,1003.19
2023-08-08T14:54:51.896Z,1003.30
2023-08-08T14:55:51.899Z,1003.22
2023-08-08T14:56:51.862Z,1003.24
2023-08-08T14:57:51.872Z,1003.29
2023-08-08T14:58:51.842Z,1003.27
2023-08-08T14:59:51.830Z,1003.35
2023-08-08T15:00:51.838Z,1003.28
2023-08-08T15:01:51.881Z,1003.33
2023-08-08T15:02:56.854Z,1003.39
2023-08-08T15:03:51.818Z,1003.41
2023-08-08T15:04:53.055Z,1003.43
2023-08-08T15:05:51.769Z,1003.38
2023-08-08T15:06:51.753Z,1003.44
2023-08-08T15:07:51.774Z,1003.38
2023-08-08T15:08:51.730Z,1003.40
2023-08-08T15:09:51.710Z,1003.46
2023-08-08T15:10:51.752Z,1003.48
2023-08-08T15:11:51.724Z,1003.51
2023-08-08T15:12:51.685Z,1003.51
2023-08-08T15:13:56.680Z,1003.52
2023-08-08T15:14:51.701Z,1003.49
2023-08-08T15:15:51.692Z,1003.53
2023-08-08T15:16:51.646Z,1003.49
2023-08-08T15:17:51.635Z,1003.60
2023-08-08T15:18:51.611Z,1003.57
2023-08-08T15:19:51.589Z,1003.53
2023-08-08T15:20:51.614Z,1003.56
2023-08-08T15:21:51.591Z,1003.55
2023-08-08T15:22:51.567Z,1003.53
2023-08-08T15:23:51.554Z,1003.51
2023-08-08T15:24:56.559Z,1003.60
2023-08-08T15:25:51.542Z,1003.56
2023-08-08T15:26:51.539Z,1003.58
2023-08-08T15:27:51.495Z,1003.50
2023-08-08T15:28:51.489Z,1003.60
2023-08-08T15:29:51.507Z,1003.63
2023-08-08T15:30:51.482Z,1003.58
2023-08-08T15:31:51.457Z,1003.57
2023-08-08T15:32:51.512Z,1003.65
2023-08-08T15:33:51.440Z,1003.52
2023-08-08T15:34:51.429Z,1003.63
2023-08-08T15:35:56.574Z,1003.65
2023-08-08T15:36:51.406Z,1003.51
2023-08-08T15:37:51.405Z,1003.59
2023-08-08T15:38:51.382Z,1003.54
2023-08-08T15:39:51.376Z,1003.58
2023-08-08T15:40:51.380Z,1003.58
2023-08-08T15:41:51.357Z,1003.58
2023-08-08T15:42:51.344Z,1003.56
2023-08-08T15:43:51.320Z,1003.57
2023-08-08T15:44:51.317Z,1003.60
2023-08-08T15:45:51.318Z,1003.58
2023-08-08T15:46:56.394Z,1003.58
2023-08-08T15:47:51.320Z,1003.61
2023-08-08T15:48:51.260Z,1003.61
2023-08-08T15:49:51.288Z,1003.58
2023-08-08T15:50:51.254Z,1003.56
2023-08-08T15:51:51.352Z,1003.58
2023-08-08T15:52:51.222Z,1003.58
2023-08-08T15:53:51.224Z,1003.56
2023-08-08T15:54:51.247Z,1003.55
2023-08-08T15:55:51.258Z,1003.53
2023-08-08T15:56:51.181Z,1003.55
2023-08-08T15:57:56.204Z,1003.57
2023-08-08T15:58:51.162Z,1003.60
2023-08-08T15:59:51.138Z,1003.54
2023-08-08T16:00:51.159Z,1003.54
2023-08-08T16:01:51.115Z,1003.60
2023-08-08T16:02:51.302Z,1003.54
2023-08-08T16:03:51.124Z,1003.59
2023-08-08T16:04:51.151Z,1003.59
2023-08-08T16:05:51.073Z,1003.60
2023-08-08T16:06:51.079Z,1003.60
2023-08-08T16:07:51.086Z,1003.56
2023-08-08T16:08:56.082Z,1003.57
2023-08-08T16:09:51.055Z,1003.52
2023-08-08T16:10:51.054Z,1003.51
2023-08-08T16:11:51.006Z,1003.56
2023-08-08T16:12:51.017Z,1003.56
2023-08-08T16:13:51.003Z,1003.59
2023-08-08T16:14:51.007Z,1003.54
2023-08-08T16:15:50.962Z,1003.53
2023-08-08T16:16:50.985Z,1003.49
2023-08-08T16:17:51.004Z,1003.46
2023-08-08T16:18:50.944Z,1003.50
2023-08-08T16:19:55.973Z,1003.50
2023-08-08T16:20:50.928Z,1003.51
2023-08-08T16:21:50.902Z,1003.50
2023-08-08T16:22:50.894Z,1003.56
2023-08-08T16:23:50.910Z,1003.62
2023-08-08T16:24:50.861Z,1003.61
2023-08-08T16:25:50.892Z,1003.65
2023-08-08T16:26:50.865Z,1003.60
2023-08-08T16:27:50.836Z,1003.54
2023-08-08T16:28:50.816Z,1003.68
2023-08-08T16:29:50.831Z,1003.60
2023-08-08T16:30:55.843Z,1003.66
2023-08-08T16:31:50.812Z,1003.61
2023-08-08T16:32:50.834Z,1003.63
2023-08-08T16:33:50.775Z,1003.68
2023-08-08T16:34:50.749Z,1003.67
2023-08-08T16:35:50.757Z,1003.57
2023-08-08T16:36:50.760Z,1003.66
2023-08-08T16:37:50.762Z,1003.62
2023-08-08T16:38:52.216Z,1003.67
2023-08-08T16:39:50.812Z,1003.55
2023-08-08T16:40:50.725Z,1003.59
2023-08-08T16:41:55.699Z,1003.59
2023-08-08T16:42:50.670Z,1003.66
2023-08-08T16:43:50.656Z,1003.61
2023-08-08T16:44:50.637Z,1003.61
2023-08-08T16:45:50.650Z,1003.66
2023-08-08T16:46:50.766Z,1003.64
2023-08-08T16:47:50.610Z,1003.69
2023-08-08T16:48:52.227Z,1003.71
2023-08-08T16:49:50.600Z,1003.72
2023-08-08T16:50:50.584Z,1003.73
2023-08-08T16:51:50.573Z,1003.71
2023-08-08T16:52:55.584Z,1003.68
2023-08-08T16:53:50.555Z,1003.74
2023-08-08T16:54:53.011Z,1003.73
2023-08-08T16:55:50.575Z,1003.69
2023-08-08T16:56:50.515Z,1003.76
2023-08-08T16:57:50.508Z,1003.72
2023-08-08T16:58:50.490Z,1003.78
2023-08-08T16:59:50.529Z,1003.82
2023-08-08T17:00:52.197Z,1003.81
2023-08-08T17:01:50.469Z,1003.81
2023-08-08T17:02:50.468Z,1003.80
2023-08-08T17:03:55.527Z,1003.71
2023-08-08T17:04:50.445Z,1003.79
2023-08-08T17:05:50.425Z,1003.76
2023-08-08T17:06:50.407Z,1003.70
2023-08-08T17:07:50.398Z,1003.76
2023-08-08T17:08:50.391Z,1003.81